Time;durP1;ratioP1;P1;durP2;ratioP2;P2;SDS_P1;SDS_P2;PMS_P1;PMS_P2;Temp;Humidity;BMP_temperature;BMP_pressure;BME280_temperature;BME280_humidity;BME280_pressure;Samples;Min_cycle;Max_cycle;Signal;HPM_P1;HPM_P2
2023/09/23 00:01:46;;;;;;;1.17;1.13;;;;;;;9.59;100.00;95582.44;4965454;28;20039;-68
2023/09/23 00:04:16;;;;;;;1.58;1.48;;;;;;;9.62;100.00;95578.72;4970043;28;20046;-67
2023/09/23 00:06:42;;;;;;;3.33;1.33;;;;;;;9.63;100.00;95586.47;4968729;28;21144;-67
2023/09/23 00:09:08;;;;;;;2.70;1.45;;;;;;;9.60;100.00;95590.19;4970438;28;20019;-67
2023/09/23 00:11:37;;;;;;;1.52;1.35;;;;;;;9.60;100.00;95579.69;4970591;28;20102;-68
2023/09/23 00:14:06;;;;;;;1.50;1.40;;;;;;;9.58;100.00;95586.88;4965344;28;20025;-68
2023/09/23 00:16:32;;;;;;;2.95;1.30;;;;;;;9.63;100.00;95583.84;4973840;28;20022;-68
2023/09/23 00:18:58;;;;;;;1.50;1.40;;;;;;;9.62;100.00;95586.59;4968255;28;20457;-67
2023/09/23 00:21:24;;;;;;;1.35;1.35;;;;;;;9.65;100.00;95581.91;4968115;28;20042;-67
2023/09/23 00:23:53;;;;;;;3.35;1.30;;;;;;;9.63;100.00;95581.22;4972450;28;20019;-68
2023/09/23 00:26:22;;;;;;;2.35;1.30;;;;;;;9.59;100.00;95580.66;4971448;28;20026;-67
2023/09/23 00:28:47;;;;;;;1.92;1.40;;;;;;;9.56;100.00;95574.84;4969237;28;20030;-68
2023/09/23 00:31:18;;;;;;;2.50;1.27;;;;;;;9.57;100.00;95576.50;4969982;28;20056;-68
2023/09/23 00:33:48;;;;;;;1.50;1.40;;;;;;;9.59;100.00;95569.31;4970615;28;20027;-67
2023/09/23 00:36:14;;;;;;;1.35;1.35;;;;;;;9.60;100.00;95576.22;4974489;28;20030;-69
2023/09/23 00:38:40;;;;;;;1.30;1.20;;;;;;;9.63;100.00;95570.72;4969399;28;20027;-67
2023/09/23 00:41:08;;;;;;;1.48;1.38;;;;;;;9.62;100.00;95574.31;4968470;28;20511;-68
2023/09/23 00:43:35;;;;;;;1.38;1.25;;;;;;;9.64;100.00;95571.53;4968321;28;20026;-68
2023/09/23 00:46:05;;;;;;;1.38;1.30;;;;;;;9.63;100.00;95570.72;4976003;28;20054;-68
2023/09/23 00:48:39;;;;;;;1.55;1.40;;;;;;;9.61;100.00;95572.63;4964740;28;20030;-68
2023/09/23 00:51:11;;;;;;;3.25;1.25;;;;;;;9.62;100.00;95576.94;4970439;28;20027;-68
2023/09/23 00:53:40;;;;;;;1.92;1.40;;;;;;;9.60;100.00;95570.97;4967315;28;20054;-68
2023/09/23 00:56:08;;;;;;;3.38;1.50;;;;;;;9.60;100.00;95577.06;4967455;28;20058;-68
2023/09/23 00:58:36;;;;;;;2.45;1.50;;;;;;;9.61;100.00;95580.50;4971320;28;20082;-68
2023/09/23 01:01:08;;;;;;;1.63;1.52;;;;;;;9.62;100.00;95579.56;4969750;28;20114;-68
2023/09/23 01:03:38;;;;;;;1.70;1.40;;;;;;;9.64;100.00;95572.38;4971764;28;20023;-68
2023/09/23 01:06:08;;;;;;;1.55;1.40;;;;;;;9.67;100.00;95572.09;4967949;28;20027;-68
2023/09/23 01:08:34;;;;;;;2.03;1.55;;;;;;;9.68;100.00;95572.91;4970599;28;20541;-68
2023/09/23 01:11:05;;;;;;;1.92;1.35;;;;;;;9.72;100.00;95576.91;4968242;28;20076;-68
2023/09/23 01:13:32;;;;;;;1.52;1.45;;;;;;;9.70;100.00;95574.44;4971320;28;20019;-68
2023/09/23 01:15:58;;;;;;;4.05;1.42;;;;;;;9.59;100.00;95575.41;4968010;28;20027;-68
2023/09/23 01:18:23;;;;;;;3.65;1.50;;;;;;;9.66;100.00;95565.16;4969873;28;20026;-68
2023/09/23 01:20:51;;;;;;;2.10;1.52;;;;;;;9.69;100.00;95570.13;4974393;28;20491;-68
2023/09/23 01:23:17;;;;;;;2.25;1.40;;;;;;;9.73;100.00;95568.88;4977450;28;20109;-68
2023/09/23 01:25:43;;;;;;;3.42;1.25;;;;;;;9.70;100.00;95560.44;4968147;28;20106;-68
2023/09/23 01:28:11;;;;;;;3.38;1.30;;;;;;;9.73;100.00;95566.25;4967702;28;20030;-68
2023/09/23 01:30:40;;;;;;;3.42;1.38;;;;;;;9.70;100.00;95563.91;4975678;28;20034;-68
2023/09/23 01:33:10;;;;;;;1.85;1.27;;;;;;;9.71;100.00;95562.09;4965368;28;20038;-68
2023/09/23 01:35:36;;;;;;;1.30;1.30;;;;;;;9.71;100.00;95562.09;4968490;28;20141;-68
2023/09/23 01:38:07;;;;;;;2.78;1.58;;;;;;;9.69;100.00;95570.13;4966309;28;20031;-68
2023/09/23 01:40:34;;;;;;;2.15;1.40;;;;;;;9.66;100.00;95562.53;4969103;28;20561;-68
2023/09/23 01:43:02;;;;;;;2.92;1.30;;;;;;;9.67;100.00;95566.81;4973416;28;20059;-68
2023/09/23 01:45:30;;;;;;;2.88;1.40;;;;;;;9.63;100.00;95565.44;4972292;28;20155;-68
2023/09/23 01:47:57;;;;;;;1.25;1.25;;;;;;;9.71;100.00;95573.47;4966048;28;20031;-68
2023/09/23 01:50:29;;;;;;;1.60;1.50;;;;;;;9.66;100.00;95562.53;4968469;28;20052;-68
2023/09/23 01:53:01;;;;;;;1.70;1.60;;;;;;;9.61;100.00;95567.34;4972270;28;20492;-68
2023/09/23 01:55:29;;;;;;;1.52;1.42;;;;;;;9.63;100.00;95568.06;4967068;28;20039;-68
2023/09/23 01:57:56;;;;;;;1.33;1.23;;;;;;;9.64;100.00;95567.09;4971458;28;20534;-68
2023/09/23 02:00:28;;;;;;;1.70;1.60;;;;;;;9.62;100.00;95576.09;4973224;28;20030;-68
2023/09/23 02:02:55;;;;;;;3.60;1.55;;;;;;;9.58;100.00;95572.91;4970362;28;20022;-68
2023/09/23 02:05:24;;;;;;;1.52;1.42;;;;;;;9.61;100.00;95572.63;4968879;28;20074;-68
2023/09/23 02:07:50;;;;;;;1.70;1.40;;;;;;;9.59;100.00;95567.50;4970830;28;20035;-68
2023/09/23 02:10:17;;;;;;;2.00;1.60;;;;;;;9.56;100.00;95562.53;4971969;28;20029;-69
2023/09/23 02:12:43;;;;;;;3.17;1.50;;;;;;;9.56;100.00;95566.94;4970200;28;20093;-69
2023/09/23 02:15:10;;;;;;;1.70;1.60;;;;;;;9.50;100.00;95567.50;4966699;28;20030;-68
2023/09/23 02:17:36;;;;;;;1.65;1.52;;;;;;;9.41;100.00;95570.00;4966391;28;20039;-68
2023/09/23 02:20:21;;;;;;;1.80;1.70;;;;;;;9.38;100.00;95567.63;4971460;28;20059;-68
2023/09/23 02:22:48;;;;;;;1.57;1.30;;;;;;;9.34;100.00;95563.63;4967419;28;20027;-68
2023/09/23 02:25:16;;;;;;;2.05;1.80;;;;;;;9.34;100.00;95568.06;4968414;28;20355;-69
2023/09/23 02:27:44;;;;;;;2.92;1.80;;;;;;;9.36;100.00;95572.19;4971687;28;20039;-68
2023/09/23 02:30:11;;;;;;;2.20;1.58;;;;;;;9.34;100.00;95575.94;4973482;28;20052;-68
2023/09/23 02:32:42;;;;;;;1.90;1.50;;;;;;;9.33;100.00;95577.72;4964679;28;20047;-68
2023/09/23 02:35:12;;;;;;;1.48;1.30;;;;;;;9.29;100.00;95587.72;4969649;28;20038;-69
2023/09/23 02:37:46;;;;;;;3.45;2.10;;;;;;;9.32;100.00;95594.47;4971510;28;20106;-68
2023/09/23 02:40:13;;;;;;;2.80;1.48;;;;;;;9.36;100.00;95590.59;4970123;28;20117;-67
2023/09/23 02:42:53;;;;;;;2.10;1.52;;;;;;;9.40;100.00;95593.78;4965185;28;20041;-68
2023/09/23 02:45:22;;;;;;;1.42;1.40;;;;;;;9.41;100.00;95593.66;4966257;28;20062;-68
2023/09/23 02:47:48;;;;;;;3.30;1.50;;;;;;;9.39;100.00;95597.38;4965706;28;20038;-69
2023/09/23 02:50:17;;;;;;;2.95;1.50;;;;;;;9.39;100.00;95600.81;4970580;28;20026;-68
2023/09/23 02:52:48;;;;;;;4.25;1.80;;;;;;;9.38;100.00;95596.53;4971347;28;20043;-68
2023/09/23 02:55:15;;;;;;;3.08;1.50;;;;;;;9.35;100.00;95596.00;4967922;28;20027;-69
2023/09/23 02:57:46;;;;;;;2.35;1.67;;;;;;;9.36;100.00;95598.47;4959610;28;20027;-68
2023/09/23 03:00:19;;;;;;;3.08;1.60;;;;;;;9.42;100.00;95602.34;4974087;28;20072;-68
2023/09/23 03:02:56;;;;;;;4.57;1.42;;;;;;;9.41;100.00;95592.81;4971032;28;20031;-68
2023/09/23 03:05:44;;;;;;;1.45;1.35;;;;;;;9.44;100.00;95595.16;4973692;28;20438;-68
2023/09/23 03:08:13;;;;;;;2.38;1.70;;;;;;;9.48;100.00;95593.91;4965726;28;20031;-68
2023/09/23 03:10:44;;;;;;;2.35;1.42;;;;;;;9.44;100.00;95590.75;4967098;28;20121;-68
2023/09/23 03:13:11;;;;;;;3.05;1.63;;;;;;;9.46;100.00;95595.84;4969447;28;20377;-68
2023/09/23 03:15:51;;;;;;;1.30;1.30;;;;;;;9.46;100.00;95595.84;4967494;28;20027;-68
2023/09/23 03:18:33;;;;;;;1.80;1.55;;;;;;;9.48;100.00;95603.63;4962222;28;20031;-69
2023/09/23 03:21:09;;;;;;;2.15;1.70;;;;;;;9.51;100.00;95598.94;4968845;28;20031;-69
2023/09/23 03:23:40;;;;;;;1.92;1.60;;;;;;;9.53;100.00;95607.50;4974234;28;20042;-68
2023/09/23 03:26:08;;;;;;;1.83;1.65;;;;;;;9.53;100.00;95611.91;4967507;28;20351;-69
2023/09/23 03:28:39;;;;;;;1.45;1.35;;;;;;;9.51;100.00;95596.28;4967307;28;20454;-69
2023/09/23 03:31:08;;;;;;;2.38;1.52;;;;;;;9.45;100.00;95599.44;4968614;28;20484;-68
2023/09/23 03:33:35;;;;;;;1.50;1.40;;;;;;;9.42;100.00;95607.63;4970799;28;20062;-68
2023/09/23 03:36:01;;;;;;;2.05;1.65;;;;;;;9.42;100.00;95611.09;4973046;28;20551;-68
2023/09/23 03:38:28;;;;;;;1.80;1.70;;;;;;;9.44;100.00;95603.06;4972495;28;20080;-68
2023/09/23 03:40:59;;;;;;;1.63;1.48;;;;;;;9.41;100.00;95606.81;4967736;28;20473;-68
2023/09/23 03:43:25;;;;;;;3.33;1.63;;;;;;;9.40;100.00;95606.94;4965386;28;20031;-68
2023/09/23 03:45:52;;;;;;;1.50;1.40;;;;;;;9.41;100.00;95613.84;4970057;28;20054;-68
2023/09/23 03:48:19;;;;;;;1.85;1.52;;;;;;;9.48;100.00;95614.13;4968684;28;20034;-68
2023/09/23 03:50:52;;;;;;;1.48;1.40;;;;;;;9.48;100.00;95617.56;4964788;28;20039;-68
2023/09/23 03:53:23;;;;;;;5.43;1.70;;;;;;;9.45;100.00;95613.44;4964314;28;20026;-68
2023/09/23 03:55:52;;;;;;;1.77;1.67;;;;;;;9.49;100.00;95610.53;4969255;28;20096;-68
2023/09/23 03:58:19;;;;;;;2.97;2.00;;;;;;;9.49;100.00;95613.16;4969897;28;20027;-68
2023/09/23 04:00:45;;;;;;;1.67;1.58;;;;;;;9.46;100.00;95611.63;4979269;28;20033;-68
2023/09/23 04:03:11;;;;;;;1.77;1.67;;;;;;;9.48;100.00;95607.06;4971232;28;20426;-68
2023/09/23 04:05:36;;;;;;;1.40;1.40;;;;;;;9.50;100.00;95610.38;4972329;28;20027;-68
2023/09/23 04:08:03;;;;;;;1.83;1.70;;;;;;;9.53;100.00;95612.75;4974096;28;20062;-68
2023/09/23 04:10:30;;;;;;;4.00;1.65;;;;;;;9.57;100.00;95608.88;4974043;28;20090;-69
2023/09/23 04:12:56;;;;;;;2.08;1.20;;;;;;;9.55;100.00;95607.34;4969380;28;20023;-68
2023/09/23 04:15:22;;;;;;;2.63;1.67;;;;;;;9.56;100.00;95612.47;4974970;28;20026;-68
2023/09/23 04:17:50;;;;;;;4.75;2.22;;;;;;;9.58;100.00;95614.94;4973458;28;20050;-68
2023/09/23 04:20:17;;;;;;;2.58;2.38;;;;;;;9.59;100.00;95620.09;4974876;28;20415;-68
2023/09/23 04:22:46;;;;;;;3.00;1.90;;;;;;;9.60;100.00;95618.28;4970688;28;20042;-68
2023/09/23 04:25:14;;;;;;;1.80;1.70;;;;;;;9.52;100.00;95647.03;4969751;28;20031;-68
2023/09/23 04:27:40;;;;;;;1.30;1.30;;;;;;;9.50;100.00;95648.97;4975968;28;20027;-69
2023/09/23 04:30:11;;;;;;;1.83;1.50;;;;;;;9.51;100.00;95650.63;4977605;28;20027;-68
2023/09/23 04:32:41;;;;;;;2.22;1.60;;;;;;;9.52;100.00;95650.53;4974974;28;20563;-68
2023/09/23 04:35:15;;;;;;;2.22;1.40;;;;;;;9.53;100.00;95646.06;4968446;28;20026;-68
2023/09/23 04:37:41;;;;;;;1.42;1.40;;;;;;;9.53;100.00;95649.56;4977377;28;20034;-69
2023/09/23 04:40:12;;;;;;;1.40;1.35;;;;;;;9.52;100.00;95647.03;4968548;28;20393;-69
2023/09/23 04:42:39;;;;;;;2.35;1.70;;;;;;;9.55;100.00;95654.66;4971476;28;20031;-68
2023/09/23 04:45:09;;;;;;;1.42;1.33;;;;;;;9.56;100.00;95644.00;4975374;28;20156;-68
2023/09/23 04:47:36;;;;;;;1.40;1.30;;;;;;;9.61;100.00;95646.22;4975748;28;20126;-69
2023/09/23 04:50:05;;;;;;;1.70;1.60;;;;;;;9.58;100.00;95638.59;4972125;28;20030;-69
2023/09/23 04:52:34;;;;;;;7.47;1.70;;;;;;;9.55;100.00;95639.72;4976444;28;20026;-68
2023/09/23 04:55:03;;;;;;;1.90;1.60;;;;;;;9.53;100.00;95659.22;4975424;28;20068;-68
2023/09/23 04:57:32;;;;;;;1.50;1.40;;;;;;;9.53;100.00;95665.31;4972343;28;20023;-68
2023/09/23 04:59:58;;;;;;;1.85;1.60;;;;;;;9.48;100.00;95670.13;4971057;28;20026;-68
2023/09/23 05:02:23;;;;;;;2.22;1.70;;;;;;;9.46;100.00;95667.66;4974174;28;20063;-68
2023/09/23 05:04:53;;;;;;;1.55;1.40;;;;;;;9.47;100.00;95676.34;4973250;28;20023;-68
2023/09/23 05:07:25;;;;;;;2.53;1.70;;;;;;;9.50;100.00;95678.72;4977079;28;20031;-68
2023/09/23 05:09:51;;;;;;;1.67;1.58;;;;;;;9.47;100.00;95681.59;4968482;28;20031;-68
2023/09/23 05:12:17;;;;;;;2.22;1.48;;;;;;;9.49;100.00;95686.75;4972788;28;20488;-68
2023/09/23 05:14:43;;;;;;;2.50;1.60;;;;;;;9.42;100.00;95678.56;4967849;28;20022;-68
2023/09/23 05:17:14;;;;;;;1.88;1.70;;;;;;;9.36;100.00;95679.09;4974842;28;20041;-68
2023/09/23 05:19:40;;;;;;;1.73;1.20;;;;;;;9.29;100.00;95679.66;4971499;28;20054;-68
2023/09/23 05:22:08;;;;;;;2.00;1.50;;;;;;;9.30;100.00;95686.56;4974563;28;20031;-68
2023/09/23 05:24:34;;;;;;;2.10;1.40;;;;;;;9.31;100.00;95682.13;4975607;28;20109;-68
2023/09/23 05:27:00;;;;;;;1.40;1.30;;;;;;;9.32;100.00;95684.63;4961165;28;20345;-69
2023/09/23 05:29:26;;;;;;;2.03;1.55;;;;;;;9.36;100.00;95693.06;4973315;28;20041;-68
2023/09/23 05:31:53;;;;;;;2.35;1.40;;;;;;;9.30;100.00;95688.34;4968777;28;20027;-68
2023/09/23 05:34:20;;;;;;;2.38;1.90;;;;;;;9.26;100.00;95697.47;4974875;28;20023;-68
2023/09/23 05:36:46;;;;;;;1.63;1.52;;;;;;;9.27;100.00;95701.75;4969495;28;20035;-68
2023/09/23 05:39:15;;;;;;;1.70;1.60;;;;;;;9.27;100.00;95699.13;4971383;28;20034;-68
2023/09/23 05:41:41;;;;;;;3.85;1.95;;;;;;;9.28;100.00;95708.69;4972424;28;20027;-68
2023/09/23 05:44:08;;;;;;;3.40;1.58;;;;;;;9.30;100.00;95712.00;4972871;28;20027;-67
2023/09/23 05:46:37;;;;;;;4.05;1.77;;;;;;;9.30;100.00;95706.75;4971681;28;20065;-68
2023/09/23 05:49:05;;;;;;;2.20;2.10;;;;;;;9.30;100.00;95717.25;4973221;28;20116;-68
2023/09/23 05:51:33;;;;;;;2.88;2.17;;;;;;;9.32;100.00;95716.16;4971226;28;20033;-69
2023/09/23 05:54:00;;;;;;;2.20;2.00;;;;;;;9.37;100.00;95720.19;4965874;28;20027;-68
2023/09/23 05:56:29;;;;;;;1.88;1.60;;;;;;;9.38;100.00;95714.78;4968614;28;20195;-68
2023/09/23 05:58:58;;;;;;;3.03;1.70;;;;;;;9.41;100.00;95713.69;4969450;28;20035;-68
2023/09/23 06:01:23;;;;;;;1.60;1.50;;;;;;;9.40;100.00;95710.25;4974209;28;20436;-67
2023/09/23 06:03:50;;;;;;;1.50;1.50;;;;;;;9.39;100.00;95716.44;4973565;28;20476;-70
2023/09/23 06:06:16;;;;;;;4.07;1.90;;;;;;;9.43;100.00;95722.28;4966282;28;20133;-68
2023/09/23 06:08:42;;;;;;;2.05;1.85;;;;;;;9.42;100.00;95720.59;4972661;28;20054;-67
2023/09/23 06:11:10;;;;;;;2.25;1.88;;;;;;;9.45;100.00;95715.91;4973526;28;20421;-68
2023/09/23 06:13:37;;;;;;;3.88;1.92;;;;;;;9.45;100.00;95726.44;4968837;28;20092;-69
2023/09/23 06:16:05;;;;;;;4.28;1.85;;;;;;;9.40;100.00;95728.63;4970670;28;20094;-70
2023/09/23 06:18:33;;;;;;;1.88;1.77;;;;;;;9.35;100.00;95735.25;4966951;28;20035;-67
2023/09/23 06:21:00;;;;;;;2.80;1.52;;;;;;;9.30;100.00;95743.53;4975707;28;20034;-68
2023/09/23 06:23:26;;;;;;;3.88;1.77;;;;;;;9.34;100.00;95741.47;4969753;28;20031;-68
2023/09/23 06:25:58;;;;;;;1.75;1.65;;;;;;;9.38;100.00;95756.00;4970241;28;20031;-68
2023/09/23 06:28:26;;;;;;;3.90;1.70;;;;;;;9.36;100.00;95756.13;4972061;28;20066;-68
2023/09/23 06:30:53;;;;;;;1.65;1.50;;;;;;;9.28;100.00;95756.81;4972996;28;20112;-68
2023/09/23 06:33:23;;;;;;;2.28;1.45;;;;;;;9.25;100.00;95759.69;4971326;28;20066;-67
2023/09/23 06:35:49;;;;;;;1.80;1.70;;;;;;;9.23;100.00;95766.03;4972367;28;20023;-68
2023/09/23 06:38:16;;;;;;;3.55;1.73;;;;;;;9.23;100.00;95771.28;4968933;28;20154;-68
2023/09/23 06:40:42;;;;;;;5.97;1.50;;;;;;;9.25;100.00;95767.56;4969002;28;20070;-68
2023/09/23 06:43:08;;;;;;;2.00;1.40;;;;;;;9.24;100.00;95780.84;4962815;28;20027;-68
2023/09/23 06:45:33;;;;;;;2.10;1.80;;;;;;;9.17;100.00;95775.28;4971244;28;20071;-68
2023/09/23 06:47:59;;;;;;;3.72;1.45;;;;;;;9.15;100.00;95779.81;4973492;28;20073;-68
2023/09/23 06:50:24;;;;;;;3.80;1.88;;;;;;;9.17;100.00;95781.38;4965958;28;20023;-68
2023/09/23 06:52:50;;;;;;;2.97;1.77;;;;;;;9.19;100.00;95785.66;4971589;28;20049;-67
2023/09/23 06:55:17;;;;;;;1.58;1.48;;;;;;;9.24;100.00;95780.84;4969572;28;20084;-68
2023/09/23 06:57:46;;;;;;;2.72;1.45;;;;;;;9.31;100.00;95781.97;4971759;28;20023;-68
2023/09/23 07:00:12;;;;;;;3.15;2.00;;;;;;;9.37;100.00;95786.69;4976546;28;20716;-67
2023/09/23 07:02:38;;;;;;;4.43;2.67;;;;;;;9.49;100.00;95800.56;4967844;28;20030;-68
2023/09/23 07:05:05;;;;;;;3.72;1.52;;;;;;;9.59;100.00;95798.81;4969268;28;20027;-68
2023/09/23 07:07:31;;;;;;;2.47;1.75;;;;;;;9.68;100.00;95801.59;4972319;28;20106;-68
2023/09/23 07:09:56;;;;;;;2.00;1.75;;;;;;;9.77;100.00;95802.59;4969121;28;20061;-67
2023/09/23 07:12:22;;;;;;;3.50;1.90;;;;;;;9.88;100.00;95799.88;4965572;28;20027;-67
2023/09/23 07:14:49;;;;;;;2.35;2.10;;;;;;;10.06;100.00;95805.31;4972706;28;20031;-70
2023/09/23 07:17:17;;;;;;;3.63;2.30;;;;;;;10.19;100.00;95818.19;4963529;28;20078;-69
2023/09/23 07:19:46;;;;;;;1.85;1.75;;;;;;;10.21;100.00;95820.69;4971556;28;20030;-69
2023/09/23 07:22:12;;;;;;;2.05;1.95;;;;;;;10.21;100.00;95826.78;4972048;28;20022;-69
2023/09/23 07:24:38;;;;;;;2.45;1.80;;;;;;;10.23;100.00;95830.09;4973259;28;20077;-72
2023/09/23 07:27:04;;;;;;;5.25;1.80;;;;;;;10.36;100.00;95842.19;4970736;28;20039;-70
2023/09/23 07:29:35;;;;;;;2.95;1.70;;;;;;;10.48;100.00;95849.00;4972786;28;20033;-69
2023/09/23 07:32:04;;;;;;;2.47;2.25;;;;;;;10.48;100.00;95846.38;4975442;28;20109;-70
2023/09/23 07:34:30;;;;;;;2.40;2.20;;;;;;;10.42;100.00;95853.03;4971593;28;20057;-70
2023/09/23 07:36:56;;;;;;;4.40;1.52;;;;;;;10.51;100.00;95850.53;4977940;28;20046;-67
2023/09/23 07:39:22;;;;;;;2.75;1.70;;;;;;;10.65;100.00;95857.19;4974692;28;20097;-67
2023/09/23 07:41:48;;;;;;;2.65;1.95;;;;;;;10.71;100.00;95851.34;4968924;28;20031;-67
2023/09/23 07:44:13;;;;;;;1.65;1.55;;;;;;;10.69;100.00;95842.75;4977455;28;20080;-67
2023/09/23 07:46:40;;;;;;;1.60;1.50;;;;;;;10.68;100.00;95849.84;4978633;28;20528;-67
2023/09/23 07:49:06;;;;;;;4.65;1.60;;;;;;;10.81;100.00;95860.09;4967875;28;20451;-67
2023/09/23 07:51:32;;;;;;;1.63;1.50;;;;;;;10.93;100.00;95871.31;4971821;28;20062;-68
2023/09/23 07:53:58;;;;;;;1.50;1.40;;;;;;;11.08;100.00;95881.44;4974359;28;20161;-68
2023/09/23 07:56:25;;;;;;;1.70;1.60;;;;;;;11.10;100.00;95896.13;4972658;28;20445;-68
2023/09/23 07:58:50;;;;;;;1.75;1.55;;;;;;;11.08;100.00;95903.34;4971546;28;20027;-67
2023/09/23 08:01:16;;;;;;;1.75;1.65;;;;;;;11.16;100.00;95916.66;4974202;28;20026;-68
2023/09/23 08:03:42;;;;;;;3.63;1.42;;;;;;;11.20;100.00;95916.38;4971964;28;20030;-68
2023/09/23 08:06:09;;;;;;;2.25;1.58;;;;;;;11.17;100.00;95918.31;4990588;28;20434;-67
2023/09/23 08:08:35;;;;;;;1.60;1.50;;;;;;;11.22;100.00;95931.06;4974517;28;20015;-67
2023/09/23 08:11:03;;;;;;;1.80;1.50;;;;;;;11.29;100.00;95949.78;4987129;28;20027;-67
2023/09/23 08:13:31;;;;;;;1.40;1.40;;;;;;;11.23;100.00;95968.81;4999303;28;20020;-68
2023/09/23 08:15:59;;;;;;;1.40;1.30;;;;;;;11.17;100.00;95965.75;4972886;28;20106;-68
2023/09/23 08:18:25;;;;;;;2.17;2.08;;;;;;;11.29;100.00;95978.78;4972634;28;20026;-70
2023/09/23 08:20:59;;;;;;;1.40;1.30;;;;;;;11.58;100.00;95983.19;4974495;28;20022;-69
2023/09/23 08:23:27;;;;;;;2.60;1.70;;;;;;;11.88;100.00;95983.97;4969982;28;20110;-67
2023/09/23 08:25:54;;;;;;;2.15;1.67;;;;;;;12.06;100.00;95999.91;4970000;28;20031;-69
2023/09/23 08:28:24;;;;;;;1.90;1.35;;;;;;;12.24;100.00;96005.28;4978927;28;20034;-71
2023/09/23 08:30:53;;;;;;;1.77;1.67;;;;;;;12.43;100.00;96024.66;4975126;28;20134;-68
2023/09/23 08:33:21;;;;;;;1.60;1.50;;;;;;;12.55;100.00;96042.00;4982552;28;20022;-69
2023/09/23 08:35:48;;;;;;;2.38;1.67;;;;;;;12.61;100.00;96051.97;4969654;28;20068;-68
2023/09/23 08:38:18;;;;;;;2.92;1.65;;;;;;;12.71;100.00;96065.13;4973245;28;20105;-68
2023/09/23 08:40:45;;;;;;;2.00;1.60;;;;;;;12.77;100.00;96084.00;4970508;28;20037;-70
2023/09/23 08:43:18;;;;;;;2.42;1.70;;;;;;;12.88;100.00;96092.56;4970853;28;20392;-68
2023/09/23 08:45:48;;;;;;;2.38;1.60;;;;;;;12.88;100.00;96110.25;4972168;28;20050;-67
2023/09/23 08:48:16;;;;;;;3.88;1.67;;;;;;;12.97;100.00;96112.00;4973449;28;20035;-68
2023/09/23 08:50:43;;;;;;;3.35;1.60;;;;;;;13.20;100.00;96122.19;4973240;28;20050;-68
2023/09/23 08:53:11;;;;;;;1.65;1.50;;;;;;;13.37;100.00;96132.94;4971697;28;20030;-67
2023/09/23 08:55:38;;;;;;;3.75;1.55;;;;;;;13.51;100.00;96147.50;4975243;28;20126;-67
2023/09/23 08:58:04;;;;;;;1.90;1.77;;;;;;;13.59;100.00;96153.72;4973644;28;20035;-68
2023/09/23 09:00:30;;;;;;;3.72;1.70;;;;;;;13.61;100.00;96180.03;4973245;28;20036;-67
2023/09/23 09:02:57;;;;;;;3.63;1.60;;;;;;;13.63;100.00;96186.00;4968983;28;20027;-67
2023/09/23 09:05:23;;;;;;;2.00;1.60;;;;;;;13.65;100.00;96199.06;4969565;28;20022;-67
2023/09/23 09:07:52;;;;;;;3.75;1.60;;;;;;;13.58;100.00;96212.91;4970160;28;20443;-67
2023/09/23 09:10:18;;;;;;;2.03;1.60;;;;;;;13.75;100.00;96208.63;4975104;28;20084;-67
2023/09/23 09:12:44;;;;;;;4.03;1.70;;;;;;;13.93;100.00;96213.09;4974793;28;20038;-67
2023/09/23 09:15:11;;;;;;;1.83;1.70;;;;;;;13.98;100.00;96204.72;4971644;28;20023;-67
2023/09/23 09:17:38;;;;;;;1.80;1.65;;;;;;;13.83;100.00;96226.41;4973289;28;20029;-68
2023/09/23 09:20:09;;;;;;;1.60;1.50;;;;;;;13.85;100.00;96226.25;4970877;28;20545;-68
2023/09/23 09:22:36;;;;;;;1.75;1.65;;;;;;;13.66;100.00;96229.84;4967590;28;20503;-75
2023/09/23 09:25:09;;;;;;;1.50;1.40;;;;;;;13.58;100.00;96233.22;4967801;28;20042;-66
2023/09/23 09:27:35;;;;;;;1.83;1.73;;;;;;;13.67;100.00;96229.69;4965594;28;20034;-66
2023/09/23 09:30:00;;;;;;;1.80;1.70;;;;;;;13.74;100.00;96229.94;4975130;28;20027;-66
2023/09/23 09:32:33;;;;;;;2.55;1.92;;;;;;;13.87;100.00;96225.09;4973248;28;20018;-70
2023/09/23 09:35:06;;;;;;;1.40;1.40;;;;;;;13.96;100.00;96227.84;4969549;28;20032;-66
2023/09/23 09:37:35;;;;;;;5.97;1.48;;;;;;;14.00;100.00;96230.03;4970201;28;20019;-69
2023/09/23 09:40:01;;;;;;;1.42;1.42;;;;;;;14.06;100.00;96227.78;4969955;28;20043;-70
2023/09/23 09:42:30;;;;;;;1.70;1.60;;;;;;;14.13;100.00;96228.84;4972868;28;20019;-69
2023/09/23 09:44:57;;;;;;;1.40;1.30;;;;;;;14.22;100.00;96238.50;4985738;28;20024;-68
2023/09/23 09:47:23;;;;;;;2.25;1.40;;;;;;;14.24;100.00;96225.94;4968811;28;20042;-67
2023/09/23 09:49:54;;;;;;;1.40;1.30;;;;;;;14.17;100.00;96224.91;4968197;28;20031;-68
2023/09/23 09:52:28;;;;;;;1.48;1.33;;;;;;;14.22;100.00;96235.06;4967929;28;20031;-69
2023/09/23 09:54:57;;;;;;;1.40;1.30;;;;;;;14.34;100.00;96225.88;4967609;28;20028;-70
2023/09/23 09:57:26;;;;;;;1.48;1.38;;;;;;;14.41;100.00;96234.06;4966124;28;20076;-70
2023/09/23 10:00:00;;;;;;;1.48;1.48;;;;;;;14.60;100.00;96239.19;4967170;28;20031;-69
2023/09/23 10:02:28;;;;;;;1.40;1.35;;;;;;;14.77;100.00;96233.19;4970779;28;20077;-69
2023/09/23 10:04:53;;;;;;;1.05;1.05;;;;;;;14.84;100.00;96224.47;4970399;28;20025;-67
2023/09/23 10:07:23;;;;;;;1.80;1.30;;;;;;;14.88;100.00;96215.22;4972709;28;20023;-69
2023/09/23 10:09:55;;;;;;;1.70;1.20;;;;;;;14.97;100.00;96233.84;4966510;28;20112;-69
2023/09/23 10:12:26;;;;;;;1.25;1.20;;;;;;;15.23;100.00;96235.63;4960959;28;20027;-69
2023/09/23 10:14:56;;;;;;;1.20;1.20;;;;;;;15.32;100.00;96240.81;4972487;28;20030;-69
2023/09/23 10:17:35;;;;;;;1.25;1.20;;;;;;;15.28;100.00;96236.00;4966514;28;20062;-68
2023/09/23 10:20:01;;;;;;;1.50;1.17;;;;;;;15.24;100.00;96237.31;4972799;28;20299;-69
2023/09/23 10:22:30;;;;;;;2.35;0.95;;;;;;;15.06;100.00;96240.84;4965342;28;20093;-69
2023/09/23 10:25:06;;;;;;;2.95;1.35;;;;;;;14.92;100.00;96236.94;4969752;28;20015;-68
2023/09/23 10:27:32;;;;;;;1.55;1.45;;;;;;;14.90;100.00;96254.84;4973309;28;20032;-68
2023/09/23 10:29:59;;;;;;;1.40;1.30;;;;;;;15.06;100.00;96254.09;4968229;28;20019;-69
2023/09/23 10:32:26;;;;;;;1.85;1.30;;;;;;;15.24;100.00;96242.59;4974667;28;20026;-70
2023/09/23 10:34:56;;;;;;;1.48;1.38;;;;;;;15.54;100.00;96241.25;4970883;28;20016;-71
2023/09/23 10:37:32;;;;;;;3.05;1.63;;;;;;;15.79;100.00;96241.34;4969598;28;20057;-67
2023/09/23 10:40:14;;;;;;;1.00;1.00;;;;;;;15.77;100.00;96211.47;4967945;28;20023;-66
2023/09/23 10:42:46;;;;;;;1.15;1.05;;;;;;;15.74;100.00;96202.00;5004941;28;20059;-67
2023/09/23 10:45:13;;;;;;;1.38;1.20;;;;;;;15.75;100.00;96197.53;4968302;28;20444;-69
2023/09/23 10:47:40;;;;;;;1.38;1.25;;;;;;;15.74;100.00;96190.56;4968144;28;20099;-68
2023/09/23 10:50:08;;;;;;;1.40;0.80;;;;;;;15.73;100.00;96195.03;4968949;28;20027;-68
2023/09/23 10:52:34;;;;;;;2.80;1.00;;;;;;;15.85;100.00;96203.53;4998840;28;20083;-68
2023/09/23 10:55:00;;;;;;;1.20;1.10;;;;;;;15.93;100.00;96197.44;4968533;28;20061;-65
2023/09/23 10:57:29;;;;;;;1.98;1.15;;;;;;;15.99;100.00;96188.81;4969972;28;21199;-65
2023/09/23 10:59:57;;;;;;;1.15;1.05;;;;;;;16.21;100.00;96188.34;4972707;28;20129;-66
2023/09/23 11:02:27;;;;;;;2.90;1.25;;;;;;;16.20;100.00;96176.88;4974730;28;20030;-65
2023/09/23 11:04:55;;;;;;;1.40;1.30;;;;;;;16.32;100.00;96164.94;4971387;28;20041;-65
2023/09/23 11:07:25;;;;;;;3.53;1.23;;;;;;;16.38;100.00;96173.22;4969556;28;20484;-66
2023/09/23 11:09:54;;;;;;;0.90;0.90;;;;;;;16.45;100.00;96179.53;4967090;28;20080;-65
2023/09/23 11:12:21;;;;;;;1.45;1.35;;;;;;;16.70;100.00;96188.31;4970228;28;20031;-66
2023/09/23 11:14:48;;;;;;;0.98;0.98;;;;;;;16.75;100.00;96182.50;4969874;28;20767;-66
2023/09/23 11:17:29;;;;;;;1.30;1.20;;;;;;;16.84;100.00;96173.50;4971673;28;20395;-65
2023/09/23 11:19:57;;;;;;;3.22;1.30;;;;;;;17.03;100.00;96171.50;4968655;28;20035;-66
2023/09/23 11:22:28;;;;;;;3.55;1.40;;;;;;;17.19;100.00;96162.63;4971748;28;20030;-66
2023/09/23 11:24:57;;;;;;;1.45;1.10;;;;;;;17.38;100.00;96156.09;4975236;28;20076;-66
2023/09/23 11:27:25;;;;;;;1.30;1.20;;;;;;;17.62;100.00;96143.66;4964331;28;20072;-66
2023/09/23 11:29:52;;;;;;;1.25;1.15;;;;;;;17.68;100.00;96140.28;4963513;28;20034;-66
2023/09/23 11:32:28;;;;;;;1.00;0.90;;;;;;;17.50;100.00;96150.34;4974760;28;20568;-66
2023/09/23 11:34:54;;;;;;;1.15;1.05;;;;;;;17.57;100.00;96165.47;4965868;28;20023;-66